createdAt,value
2023-03-16T00:00:53.868Z,14.00
2023-03-16T00:03:30.931Z,13.60
2023-03-16T00:06:04.704Z,13.70
2023-03-16T00:08:39.456Z,13.50
2023-03-16T00:11:13.832Z,13.50
2023-03-16T00:13:47.456Z,12.40
2023-03-16T00:16:22.123Z,12.50
2023-03-16T00:18:55.799Z,12.10
2023-03-16T00:21:30.896Z,11.90
2023-03-16T00:24:04.636Z,11.70
2023-03-16T00:26:38.575Z,13.10
2023-03-16T00:29:12.359Z,11.20
2023-03-16T00:31:46.187Z,12.80
2023-03-16T00:34:20.065Z,11.30
2023-03-16T00:36:55.780Z,12.30
2023-03-16T00:39:29.566Z,12.60
2023-03-16T00:42:03.488Z,11.70
2023-03-16T00:44:36.979Z,12.30
2023-03-16T00:47:14.845Z,12.40
2023-03-16T00:49:48.658Z,11.30
2023-03-16T00:52:23.648Z,11.90
2023-03-16T00:54:57.899Z,12.40
2023-03-16T00:57:32.334Z,12.70
2023-03-16T01:00:13.241Z,11.90
2023-03-16T01:02:46.923Z,12.50
2023-03-16T01:05:20.982Z,12.50
2023-03-16T01:07:54.775Z,12.20
2023-03-16T01:10:29.778Z,12.10
2023-03-16T01:13:03.761Z,12.40
2023-03-16T01:15:37.776Z,12.20
2023-03-16T01:18:13.955Z,13.20
2023-03-16T01:20:51.272Z,13.60
2023-03-16T01:23:25.365Z,12.30
2023-03-16T01:25:59.357Z,11.20
2023-03-16T01:28:34.618Z,11.70
2023-03-16T01:31:10.825Z,10.70
2023-03-16T01:33:45.767Z,12.00
2023-03-16T01:36:22.849Z,10.90
2023-03-16T01:41:36.708Z,10.20
2023-03-16T01:44:12.545Z,11.60
2023-03-16T01:46:46.412Z,10.20
2023-03-16T01:49:24.362Z,11.20
2023-03-16T01:52:04.395Z,10.80
2023-03-16T01:54:42.693Z,11.10
2023-03-16T01:57:20.384Z,11.20
2023-03-16T01:59:58.179Z,10.90
2023-03-16T02:02:34.177Z,10.80
2023-03-16T02:05:13.855Z,10.50
2023-03-16T02:07:51.298Z,11.00
2023-03-16T02:10:25.092Z,11.80
2023-03-16T02:13:00.008Z,10.80
2023-03-16T02:15:36.419Z,11.50
2023-03-16T02:18:11.541Z,10.80
2023-03-16T02:20:52.116Z,10.50
2023-03-16T02:23:27.704Z,10.70
2023-03-16T02:26:09.225Z,11.90
2023-03-16T02:28:51.763Z,12.00
2023-03-16T02:31:25.469Z,11.00
2023-03-16T02:34:01.995Z,10.70
2023-03-16T02:36:36.976Z,11.00
2023-03-16T02:39:11.063Z,11.60
2023-03-16T02:41:52.622Z,10.90
2023-03-16T02:44:29.642Z,11.30
2023-03-16T02:47:07.477Z,11.90
2023-03-16T02:49:44.041Z,11.00
2023-03-16T02:52:17.788Z,11.70
2023-03-16T02:54:51.656Z,12.10
2023-03-16T02:57:25.316Z,11.00
2023-03-16T02:59:59.619Z,10.60
2023-03-16T03:02:33.146Z,10.90
2023-03-16T03:05:06.973Z,11.70
2023-03-16T03:07:40.626Z,11.70
2023-03-16T03:10:14.989Z,11.60
2023-03-16T03:12:50.236Z,11.50
2023-03-16T03:15:24.193Z,12.30
2023-03-16T03:18:06.837Z,12.20
2023-03-16T03:20:40.255Z,11.50
2023-03-16T03:23:15.676Z,11.10
2023-03-16T03:25:49.510Z,12.50
2023-03-16T03:28:23.389Z,12.60
2023-03-16T03:30:57.885Z,12.30
2023-03-16T03:33:34.021Z,14.40
2023-03-16T03:36:09.792Z,13.10
2023-03-16T03:38:44.654Z,13.60
2023-03-16T03:41:19.408Z,14.70
2023-03-16T03:43:53.144Z,14.30
2023-03-16T03:46:27.559Z,16.30
2023-03-16T03:49:04.480Z,16.70
2023-03-16T03:51:39.687Z,19.30
2023-03-16T03:54:17.499Z,19.20
2023-03-16T03:56:59.576Z,18.70
2023-03-16T03:59:35.305Z,19.00
2023-03-16T04:02:28.364Z,19.60
2023-03-16T04:05:02.686Z,16.70
2023-03-16T04:07:36.653Z,18.60
2023-03-16T04:10:14.833Z,16.80
2023-03-16T04:12:49.801Z,15.40
2023-03-16T04:15:24.073Z,15.50
2023-03-16T04:18:10.375Z,14.50
2023-03-16T04:20:44.148Z,14.50
2023-03-16T04:23:20.864Z,14.60
2023-03-16T04:25:56.056Z,13.60
2023-03-16T04:28:29.783Z,14.10
2023-03-16T04:31:07.631Z,12.00
2023-03-16T04:33:46.141Z,14.30
2023-03-16T04:36:20.102Z,14.70
2023-03-16T04:38:55.319Z,13.40
2023-03-16T04:41:30.018Z,12.20
2023-03-16T04:44:14.054Z,13.50
2023-03-16T04:46:48.088Z,13.50
2023-03-16T04:49:21.905Z,13.70
2023-03-16T04:51:55.646Z,13.00
2023-03-16T04:54:29.204Z,15.00
2023-03-16T04:57:03.966Z,13.10
2023-03-16T04:59:48.931Z,13.60
2023-03-16T05:02:29.526Z,13.90
2023-03-16T05:05:06.963Z,13.00
2023-03-16T05:07:42.002Z,13.10
2023-03-16T05:10:17.281Z,14.30
2023-03-16T05:12:51.194Z,14.00
2023-03-16T05:15:25.117Z,13.20
2023-03-16T05:18:34.852Z,14.10
2023-03-16T05:21:08.934Z,14.00
2023-03-16T05:23:58.746Z,12.40
2023-03-16T05:26:33.187Z,13.50
2023-03-16T05:29:07.502Z,13.30
2023-03-16T05:31:41.528Z,12.80
2023-03-16T05:34:19.746Z,13.10
2023-03-16T05:36:53.350Z,13.00
2023-03-16T05:39:28.945Z,14.50
2023-03-16T05:42:02.821Z,13.70
2023-03-16T05:44:56.190Z,14.10
2023-03-16T05:47:52.208Z,13.80
2023-03-16T05:50:26.862Z,14.00
2023-03-16T05:53:00.746Z,12.50
2023-03-16T05:55:34.773Z,13.90
2023-03-16T05:58:09.275Z,14.60
2023-03-16T06:00:43.449Z,14.60
2023-03-16T06:03:27.854Z,14.90
2023-03-16T06:06:02.479Z,14.50
2023-03-16T06:08:45.115Z,14.00
2023-03-16T06:11:18.644Z,15.70
2023-03-16T06:13:52.401Z,14.70
2023-03-16T06:16:26.495Z,14.80
2023-03-16T06:19:00.332Z,15.10
2023-03-16T06:21:35.523Z,15.80
2023-03-16T06:24:16.386Z,17.90
2023-03-16T06:26:50.305Z,17.90
2023-03-16T06:29:24.590Z,21.90
2023-03-16T06:31:58.301Z,20.00
2023-03-16T06:34:32.463Z,19.40
2023-03-16T06:37:06.622Z,20.40
2023-03-16T06:39:40.373Z,17.60
2023-03-16T06:42:14.010Z,17.20
2023-03-16T06:44:47.915Z,16.70
2023-03-16T06:47:22.294Z,17.50
2023-03-16T06:49:55.977Z,18.40
2023-03-16T06:52:31.989Z,16.90
2023-03-16T06:55:05.872Z,16.70
2023-03-16T06:57:40.818Z,16.70
2023-03-16T07:00:17.617Z,19.10
2023-03-16T07:02:51.649Z,19.70
2023-03-16T07:05:26.382Z,18.70
2023-03-16T07:08:00.148Z,19.90
2023-03-16T07:10:34.747Z,18.90
2023-03-16T07:13:08.512Z,19.10
2023-03-16T07:15:42.283Z,19.40
2023-03-16T07:18:16.368Z,19.10
2023-03-16T07:20:50.692Z,18.80
2023-03-16T07:23:24.745Z,17.70
2023-03-16T07:26:00.043Z,18.10
2023-03-16T07:28:34.316Z,19.70
2023-03-16T07:31:09.808Z,19.10
2023-03-16T07:33:46.425Z,19.30
2023-03-16T07:36:24.280Z,20.20
2023-03-16T07:39:01.883Z,19.30
2023-03-16T07:41:35.769Z,19.60
2023-03-16T07:44:23.850Z,20.30
2023-03-16T07:46:59.522Z,20.70
2023-03-16T07:49:34.815Z,19.10
2023-03-16T07:52:09.558Z,20.50
2023-03-16T07:54:45.659Z,20.20
2023-03-16T07:57:20.672Z,18.60
2023-03-16T07:59:54.467Z,19.90
2023-03-16T08:02:28.789Z,20.20
2023-03-16T08:05:04.454Z,20.50
2023-03-16T08:07:38.475Z,20.60
2023-03-16T08:10:19.125Z,20.10
2023-03-16T08:13:01.238Z,18.90
2023-03-16T08:15:36.162Z,19.90
2023-03-16T08:18:18.088Z,18.90
2023-03-16T08:20:52.841Z,19.00
2023-03-16T08:23:26.714Z,19.50
2023-03-16T08:26:01.448Z,22.00
2023-03-16T08:28:35.235Z,19.20
2023-03-16T08:31:14.931Z,18.20
2023-03-16T08:33:58.566Z,19.00
2023-03-16T08:36:34.009Z,18.00
2023-03-16T08:39:07.950Z,17.20
2023-03-16T08:41:48.483Z,17.80
2023-03-16T08:44:30.969Z,18.20
2023-03-16T08:47:05.525Z,17.00
2023-03-16T08:49:40.148Z,17.10
2023-03-16T08:52:19.054Z,14.90
2023-03-16T08:55:03.096Z,14.90
2023-03-16T08:57:39.612Z,14.80
2023-03-16T09:00:15.908Z,14.20
2023-03-16T09:02:50.210Z,13.10
2023-03-16T09:05:26.076Z,14.30
2023-03-16T09:08:00.419Z,12.20
2023-03-16T09:10:34.393Z,12.80
2023-03-16T09:13:08.955Z,12.20
2023-03-16T09:15:43.349Z,10.70
2023-03-16T09:18:18.834Z,11.50
2023-03-16T09:20:52.304Z,10.70
2023-03-16T09:23:26.563Z,10.50
2023-03-16T09:26:03.481Z,9.90
2023-03-16T09:28:41.039Z,9.10
2023-03-16T09:31:20.231Z,9.70
2023-03-16T09:33:54.747Z,9.90
2023-03-16T09:36:28.778Z,9.50
2023-03-16T09:39:02.943Z,8.40
2023-03-16T09:41:47.970Z,8.10
2023-03-16T09:44:35.970Z,8.70
2023-03-16T09:47:13.273Z,7.70
2023-03-16T09:49:49.436Z,10.20
2023-03-16T09:52:33.779Z,7.40
2023-03-16T09:55:15.157Z,7.10
2023-03-16T09:57:52.767Z,6.40
2023-03-16T10:00:33.077Z,6.50
2023-03-16T10:03:25.456Z,6.00
2023-03-16T10:06:04.149Z,5.20
2023-03-16T10:08:42.396Z,4.40
2023-03-16T10:11:36.921Z,5.20
2023-03-16T10:14:20.565Z,5.30
2023-03-16T10:16:59.045Z,6.20
2023-03-16T10:22:22.177Z,4.70
2023-03-16T10:25:05.760Z,5.10
2023-03-16T10:27:41.099Z,6.10
2023-03-16T10:30:25.205Z,6.50
2023-03-16T10:33:03.925Z,6.30
2023-03-16T10:38:33.976Z,5.90
2023-03-16T10:41:16.689Z,6.60
2023-03-16T10:43:53.561Z,6.80
2023-03-16T10:46:29.141Z,6.20
2023-03-16T10:49:03.756Z,5.40
2023-03-16T10:51:39.850Z,5.70
2023-03-16T10:54:23.892Z,7.10
2023-03-16T10:56:57.923Z,6.30
2023-03-16T10:59:35.391Z,5.30
2023-03-16T11:02:21.011Z,5.40
2023-03-16T11:04:57.726Z,5.50
2023-03-16T11:07:31.794Z,5.70
2023-03-16T11:10:26.986Z,5.50
2023-03-16T11:13:09.119Z,5.30
2023-03-16T11:15:46.577Z,6.30
2023-03-16T11:18:30.429Z,6.10
2023-03-16T11:21:10.030Z,5.70
2023-03-16T11:23:50.489Z,5.30
2023-03-16T11:26:29.520Z,5.50
2023-03-16T11:29:10.172Z,5.90
2023-03-16T11:31:49.803Z,5.30
2023-03-16T11:34:28.600Z,5.40
2023-03-16T11:37:15.346Z,4.90
2023-03-16T11:39:58.851Z,4.90
2023-03-16T11:42:39.889Z,5.10
2023-03-16T11:45:27.721Z,4.90
2023-03-16T11:48:21.710Z,4.80
2023-03-16T11:51:06.633Z,5.10
2023-03-16T11:54:02.977Z,5.40
2023-03-16T11:56:41.900Z,5.30
2023-03-16T11:59:48.979Z,5.90
2023-03-16T12:02:41.096Z,4.70
2023-03-16T12:05:33.871Z,4.80
2023-03-16T12:08:24.916Z,5.00
2023-03-16T12:11:04.697Z,5.90
2023-03-16T12:13:52.905Z,5.30
2023-03-16T12:16:48.325Z,5.80
2023-03-16T12:19:31.032Z,5.00
2023-03-16T12:22:15.598Z,6.00
2023-03-16T12:24:50.746Z,5.00
2023-03-16T12:27:28.301Z,4.40
2023-03-16T12:30:15.907Z,4.50
2023-03-16T12:33:00.894Z,4.20
2023-03-16T12:35:44.886Z,4.60
2023-03-16T12:38:38.230Z,4.50
2023-03-16T12:41:32.463Z,4.70
2023-03-16T12:44:21.318Z,3.80
2023-03-16T12:47:02.764Z,4.00
2023-03-16T12:49:38.805Z,3.80
2023-03-16T12:52:15.340Z,4.10
2023-03-16T12:55:07.578Z,4.30
2023-03-16T12:57:43.741Z,5.20
2023-03-16T13:00:20.064Z,4.50
2023-03-16T13:03:00.094Z,4.90
2023-03-16T13:05:36.676Z,5.00
2023-03-16T13:08:13.985Z,4.50
2023-03-16T13:11:04.721Z,4.80
2023-03-16T13:13:50.058Z,3.90
2023-03-16T13:16:32.505Z,4.60
2023-03-16T13:19:26.582Z,4.20
2023-03-16T13:22:21.434Z,4.20
2023-03-16T13:24:57.850Z,4.20
2023-03-16T13:27:35.624Z,3.80
2023-03-16T13:30:22.756Z,4.00
2023-03-16T13:33:03.042Z,4.50
2023-03-16T13:35:41.400Z,4.20
2023-03-16T13:38:20.324Z,4.10
2023-03-16T13:40:56.952Z,3.90
2023-03-16T13:43:36.103Z,4.10
2023-03-16T13:46:20.079Z,3.90
2023-03-16T13:48:53.970Z,4.60
2023-03-16T13:51:27.995Z,4.90
2023-03-16T13:54:06.659Z,4.70
2023-03-16T13:56:40.580Z,4.30
2023-03-16T13:59:14.696Z,4.00
2023-03-16T14:01:50.208Z,4.10
2023-03-16T14:04:25.789Z,4.10
2023-03-16T14:07:01.187Z,4.10
2023-03-16T14:09:37.304Z,4.40
2023-03-16T14:12:18.307Z,4.50
2023-03-16T14:14:56.769Z,3.60
2023-03-16T14:17:32.293Z,4.10
2023-03-16T14:20:08.538Z,3.80
2023-03-16T14:22:42.346Z,3.60
2023-03-16T14:25:22.894Z,3.70
2023-03-16T14:28:04.122Z,3.30
2023-03-16T14:30:38.666Z,3.40
2023-03-16T14:33:30.143Z,3.00
2023-03-16T14:36:13.373Z,3.30
2023-03-16T14:38:48.641Z,3.20
2023-03-16T14:41:29.336Z,3.30
2023-03-16T14:44:04.692Z,3.20
2023-03-16T14:46:42.741Z,3.70
2023-03-16T14:49:25.629Z,3.40
2023-03-16T14:52:03.831Z,3.10
2023-03-16T14:54:37.750Z,3.00
2023-03-16T14:57:19.933Z,2.70
2023-03-16T14:59:54.538Z,2.90
2023-03-16T15:02:32.211Z,2.90
2023-03-16T15:05:07.647Z,2.60
2023-03-16T15:07:43.587Z,3.20
2023-03-16T15:10:27.084Z,3.00
2023-03-16T15:13:13.641Z,3.80
2023-03-16T15:15:49.082Z,2.90
2023-03-16T15:18:22.853Z,3.90
2023-03-16T15:20:56.970Z,3.10
2023-03-16T15:23:31.203Z,3.00
2023-03-16T15:26:07.820Z,3.10
2023-03-16T15:28:41.751Z,2.60
2023-03-16T15:31:16.472Z,2.70
2023-03-16T15:33:50.345Z,3.10
2023-03-16T15:36:25.469Z,2.60
2023-03-16T15:38:58.924Z,2.60
2023-03-16T15:41:46.810Z,2.90
2023-03-16T15:44:21.515Z,2.50
2023-03-16T15:46:56.167Z,3.10
2023-03-16T15:49:32.456Z,3.20
2023-03-16T15:52:29.033Z,3.20
2023-03-16T15:55:08.271Z,2.90
2023-03-16T15:57:42.048Z,3.10
2023-03-16T16:00:35.928Z,3.30
2023-03-16T16:03:13.434Z,3.50
2023-03-16T16:05:47.824Z,2.60
2023-03-16T16:08:21.764Z,3.10
2023-03-16T16:10:57.697Z,2.60
2023-03-16T16:13:43.537Z,2.60
2023-03-16T16:16:20.736Z,2.60
2023-03-16T16:18:54.709Z,2.80
2023-03-16T16:21:31.863Z,2.50
2023-03-16T16:24:06.052Z,3.10
2023-03-16T16:26:54.198Z,3.00
2023-03-16T16:29:34.244Z,3.00
2023-03-16T16:32:22.654Z,3.90
2023-03-16T16:37:39.367Z,5.50
2023-03-16T16:40:23.570Z,4.30
2023-03-16T16:42:58.297Z,4.20
2023-03-16T16:45:33.592Z,4.40
2023-03-16T16:48:25.169Z,4.50
2023-03-16T16:50:59.884Z,4.60
2023-03-16T16:53:34.718Z,4.30
2023-03-16T16:56:14.175Z,4.80
2023-03-16T16:58:49.127Z,5.70
2023-03-16T17:01:28.785Z,5.10
2023-03-16T17:04:04.054Z,4.40
2023-03-16T17:06:38.216Z,5.00
2023-03-16T17:09:14.723Z,6.30
2023-03-16T17:11:50.521Z,6.00
2023-03-16T17:14:28.787Z,5.40
2023-03-16T17:17:09.004Z,4.90
2023-03-16T17:19:47.322Z,5.30
2023-03-16T17:22:26.661Z,6.20
2023-03-16T17:25:01.364Z,6.50
2023-03-16T17:27:35.865Z,6.80
2023-03-16T17:30:24.740Z,5.70
2023-03-16T17:33:04.836Z,6.70
2023-03-16T17:35:41.813Z,7.00
2023-03-16T17:38:23.063Z,8.30
2023-03-16T17:40:59.675Z,7.10
2023-03-16T17:43:38.075Z,7.30
2023-03-16T17:46:17.174Z,8.30
2023-03-16T17:48:57.634Z,7.50
2023-03-16T17:51:40.358Z,8.90
2023-03-16T17:54:22.226Z,8.50
2023-03-16T17:56:58.220Z,8.90
2023-03-16T17:59:39.455Z,9.10
2023-03-16T18:02:41.231Z,9.60
2023-03-16T18:05:26.427Z,8.40
2023-03-16T18:08:10.517Z,8.50
2023-03-16T18:10:55.702Z,9.30
2023-03-16T18:13:35.801Z,8.80
2023-03-16T18:16:17.005Z,8.60
2023-03-16T18:19:01.593Z,8.70
2023-03-16T18:21:38.548Z,8.90
2023-03-16T18:24:22.491Z,9.10
2023-03-16T18:26:59.746Z,8.30
2023-03-16T18:29:43.209Z,10.20
2023-03-16T18:32:26.398Z,9.50
2023-03-16T18:35:04.725Z,9.60
2023-03-16T18:37:44.615Z,10.00
2023-03-16T18:40:26.392Z,11.20
2023-03-16T18:43:02.716Z,12.30
2023-03-16T18:45:40.520Z,10.80
2023-03-16T18:48:26.115Z,11.00
2023-03-16T18:51:05.602Z,9.50
2023-03-16T18:53:42.414Z,10.10
2023-03-16T18:56:28.952Z,11.90
2023-03-16T18:59:07.120Z,20.10
2023-03-16T19:01:47.102Z,13.70
2023-03-16T19:04:34.505Z,13.30
2023-03-16T19:07:27.698Z,11.00
2023-03-16T19:10:06.792Z,11.10
2023-03-16T19:12:46.620Z,12.10
2023-03-16T19:15:30.030Z,11.60
2023-03-16T19:18:14.097Z,11.80
2023-03-16T19:20:54.945Z,12.70
2023-03-16T19:23:37.244Z,11.80
2023-03-16T19:26:15.886Z,12.60
2023-03-16T19:28:54.038Z,12.20
2023-03-16T19:31:37.806Z,12.20
2023-03-16T19:34:26.681Z,12.00
2023-03-16T19:37:07.806Z,11.40
2023-03-16T19:39:45.124Z,11.90
2023-03-16T19:42:36.120Z,12.40
2023-03-16T19:45:21.029Z,12.70
2023-03-16T19:47:58.592Z,11.80
2023-03-16T19:50:35.800Z,12.80
2023-03-16T19:53:25.634Z,13.00
2023-03-16T19:56:04.966Z,13.60
2023-03-16T19:58:42.678Z,13.20
2023-03-16T20:01:33.807Z,13.40
2023-03-16T20:04:20.521Z,12.10
2023-03-16T20:06:57.473Z,11.30
2023-03-16T20:09:39.809Z,11.80
2023-03-16T20:12:38.694Z,12.00
2023-03-16T20:15:18.864Z,13.30
2023-03-16T20:17:55.290Z,14.90
2023-03-16T20:20:34.685Z,15.70
2023-03-16T20:23:22.003Z,17.10
2023-03-16T20:26:05.720Z,17.20
2023-03-16T20:28:43.483Z,17.90
2023-03-16T20:31:27.478Z,18.80
2023-03-16T20:34:03.063Z,20.40
2023-03-16T20:36:39.104Z,21.00
2023-03-16T20:39:17.846Z,20.80
2023-03-16T20:41:55.838Z,22.90
2023-03-16T20:44:33.912Z,26.00
2023-03-16T20:47:19.538Z,27.20
2023-03-16T20:50:00.061Z,25.10
2023-03-16T20:52:38.359Z,25.90
2023-03-16T20:55:20.636Z,30.90
2023-03-16T20:57:58.483Z,28.60
2023-03-16T21:00:40.010Z,31.60
2023-03-16T21:03:24.994Z,34.20
2023-03-16T21:06:02.010Z,31.70
2023-03-16T21:08:36.923Z,29.60
2023-03-16T21:11:26.769Z,30.70
2023-03-16T21:14:05.189Z,31.10
2023-03-16T21:16:40.762Z,32.20
2023-03-16T21:19:20.233Z,33.00
2023-03-16T21:21:56.328Z,31.50
2023-03-16T21:24:31.603Z,31.30
2023-03-16T21:27:05.277Z,33.50
2023-03-16T21:29:39.242Z,33.60
2023-03-16T21:32:23.416Z,33.00
2023-03-16T21:34:59.417Z,34.70
2023-03-16T21:37:33.566Z,35.70
2023-03-16T21:40:16.956Z,33.50
2023-03-16T21:42:52.062Z,34.10
2023-03-16T21:45:26.057Z,34.60
2023-03-16T21:48:00.149Z,32.60
2023-03-16T21:50:36.077Z,31.80
2023-03-16T21:53:17.840Z,29.90
2023-03-16T21:55:52.328Z,29.80
2023-03-16T21:58:27.571Z,31.80
2023-03-16T22:01:01.819Z,32.60
2023-03-16T22:03:50.419Z,31.00
2023-03-16T22:06:28.145Z,31.30
2023-03-16T22:09:03.158Z,31.80
2023-03-16T22:11:36.611Z,31.20
2023-03-16T22:14:10.392Z,32.30
2023-03-16T22:16:45.033Z,30.60
2023-03-16T22:19:19.272Z,32.30
2023-03-16T22:21:53.020Z,32.60
2023-03-16T22:24:28.846Z,32.40
2023-03-16T22:27:02.787Z,31.30
2023-03-16T22:29:36.928Z,31.00
2023-03-16T22:32:17.300Z,29.70
2023-03-16T22:34:53.018Z,29.70
2023-03-16T22:37:28.961Z,30.30
2023-03-16T22:40:03.175Z,30.30
2023-03-16T22:42:38.554Z,31.10
2023-03-16T22:45:23.092Z,32.40
2023-03-16T22:47:58.549Z,32.40
2023-03-16T22:50:35.912Z,30.10
2023-03-16T22:53:13.370Z,31.70
2023-03-16T22:55:47.088Z,29.90
2023-03-16T22:58:31.626Z,28.50
2023-03-16T23:01:17.192Z,30.20
2023-03-16T23:03:53.256Z,29.80
2023-03-16T23:06:28.246Z,27.80
2023-03-16T23:09:02.634Z,30.90
2023-03-16T23:11:37.631Z,30.80
2023-03-16T23:14:16.310Z,29.90
2023-03-16T23:16:50.661Z,29.90
2023-03-16T23:19:30.160Z,31.90
2023-03-16T23:22:06.408Z,33.70
2023-03-16T23:24:39.986Z,30.80
2023-03-16T23:27:21.635Z,32.00
2023-03-16T23:29:55.253Z,32.80
2023-03-16T23:32:29.445Z,30.50
2023-03-16T23:35:03.081Z,30.10
2023-03-16T23:37:36.932Z,28.80
2023-03-16T23:40:12.403Z,29.90
2023-03-16T23:42:47.233Z,29.60
2023-03-16T23:45:31.510Z,30.50
2023-03-16T23:48:09.015Z,31.10
2023-03-16T23:50:44.996Z,30.50
2023-03-16T23:53:20.797Z,30.10
2023-03-16T23:55:54.490Z,29.40
2023-03-16T23:58:28.030Z,30.60
